Hibbs, Pennsylvania
Current Conditions -  °F | °C
As of 10:53 PM on Friday 24 Oct 2014 (Local Time) from KMGW Reporting Station
Clear Clear  
Wind Chill: 42°   Ceiling: Unl
Heat Index: 44°   Visibility: 10mi
Dew Point: 38°   Wind: 5mph
Humidity: 79%   Direction: 200°SSW
Pressure: 30.05"   Gusts: NA
Location:  39.93°N, 79.88°W
Report Text: KMGW 250253Z 20004KT 10SM CLR 07/03 A3005 RMK AO2 SLP180 T00670033 52005
Loading
Personal Weather Stations






























Interactive Weather Map
Tropical Storm Tracking
New forecast layout! Learn more

10-Day Weather Forecast

Advertisements
Track Severe Weather on mobile